Time;durP1;ratioP1;P1;durP2;ratioP2;P2;SDS_P1;SDS_P2;PMS_P1;PMS_P2;Temp;Humidity;BMP_temperature;BMP_pressure;BME280_temperature;BME280_humidity;BME280_pressure;Samples;Min_cycle;Max_cycle;Signal;HPM_P1;HPM_P2
2021/12/04 00:02:24;;;;;;;;;;;;;;;;;;5090662;28;19916;-79
2021/12/04 00:04:52;;;;;;;;;;;;;;;;;;5090084;28;19916;-79
2021/12/04 00:07:17;;;;;;;;;;;;;;;;;;5091460;28;19923;-79
2021/12/04 00:09:46;;;;;;;;;;;;;;;;;;5092120;28;19924;-79
2021/12/04 00:12:12;;;;;;;;;;;;;;;;;;5091374;28;19916;-79
2021/12/04 00:14:38;;;;;;;;;;;;;;;;;;5091751;28;19943;-79
2021/12/04 00:17:05;;;;;;;;;;;;;;;;;;5091862;28;19916;-80
2021/12/04 00:19:31;;;;;;;;;;;;;;;;;;5090647;28;19916;-79
2021/12/04 00:21:56;;;;;;;;;;;;;;;;;;5092122;28;19974;-78
2021/12/04 00:24:22;;;;;;;;;;;;;;;;;;5103450;28;19926;-79
2021/12/04 00:26:48;;;;;;;;;;;;;;;;;;5111788;28;19925;-79
2021/12/04 00:29:14;;;;;;;;;;;;;;;;;;5111884;28;19924;-79
2021/12/04 00:31:45;;;;;;;;;;;;;;;;;;5112952;28;19916;-79
2021/12/04 00:34:12;;;;;;;;;;;;;;;;;;5112464;28;19916;-79
2021/12/04 00:49:59;;;;;;;;;;;;;;;;;;5113508;28;19920;-78
2021/12/04 00:52:25;;;;;;;;;;;;;;;;;;5110161;28;19978;-79
2021/12/04 00:54:50;;;;;;;;;;;;;;;;;;5108028;28;19916;-79
2021/12/04 00:57:16;;;;;;;;;;;;;;;;;;5109460;28;19917;-79
2021/12/04 00:59:42;;;;;;;;;;;;;;;;;;5108744;28;19947;-79
2021/12/04 01:02:07;;;;;;;;;;;;;;;;;;5108536;28;19923;-79
2021/12/04 01:04:32;;;;;;;;;;;;;;;;;;5111089;28;19947;-79
2021/12/04 01:06:58;;;;;;;;;;;;;;;;;;5110116;28;19923;-79
2021/12/04 01:09:24;;;;;;;;;;;;;;;;;;5105355;28;19920;-78
2021/12/04 01:11:50;;;;;;;;;;;;;;;;;;5099654;28;19924;-78
2021/12/04 01:14:16;;;;;;;;;;;;;;;;;;5100201;28;19912;-79
2021/12/04 01:16:43;;;;;;;;;;;;;;;;;;5098687;28;19916;-78
2021/12/04 01:19:08;;;;;;;;;;;;;;;;;;5099860;28;19916;-78
2021/12/04 01:21:34;;;;;;;;;;;;;;;;;;5099253;28;19922;-78
2021/12/04 01:23:59;;;;;;;;;;;;;;;;;;5107245;28;19998;-78
2021/12/04 01:26:26;;;;;;;;;;;;;;;;;;5121554;28;20284;-78
2021/12/04 01:28:51;;;;;;;;;;;;;;;;;;5122988;28;20300;-79
2021/12/04 01:31:17;;;;;;;;;;;;;;;;;;5122901;28;19922;-79
2021/12/04 01:33:42;;;;;;;;;;;;;;;;;;5120208;28;20273;-80
2021/12/04 01:36:09;;;;;;;;;;;;;;;;;;5119736;28;19916;-80
2021/12/04 01:38:34;;;;;;;;;;;;;;;;;;5120797;28;19916;-81
2021/12/04 01:41:00;;;;;;;;;;;;;;;;;;5119947;28;19951;-79
2021/12/04 01:43:25;;;;;;;;;;;;;;;;;;5119658;28;19964;-78
2021/12/04 01:45:53;;;;;;;;;;;;;;;;;;5117992;28;20362;-78
2021/12/04 01:48:18;;;;;;;;;;;;;;;;;;5119493;28;19919;-80
2021/12/04 01:50:43;;;;;;;;;;;;;;;;;;5119851;28;20006;-78
2021/12/04 01:53:08;;;;;;;;;;;;;;;;;;5118317;28;19920;-78
2021/12/04 01:55:35;;;;;;;;;;;;;;;;;;5099120;28;19920;-78
2021/12/04 01:58:03;;;;;;;;;;;;;;;;;;5098779;28;20384;-78
2021/12/04 02:00:29;;;;;;;;;;;;;;;;;;5098118;28;19916;-78
2021/12/04 02:02:54;;;;;;;;;;;;;;;;;;5098720;28;19920;-78
2021/12/04 02:05:20;;;;;;;;;;;;;;;;;;5098660;28;19923;-78
2021/12/04 02:07:46;;;;;;;;;;;;;;;;;;5097745;28;20401;-80
2021/12/04 02:10:11;;;;;;;;;;;;;;;;;;5098215;28;19916;-78
2021/12/04 02:12:37;;;;;;;;;;;;;;;;;;5097745;28;19923;-78
2021/12/04 02:15:03;;;;;;;;;;;;;;;;;;5097638;28;20413;-78
2021/12/04 02:17:28;;;;;;;;;;;;;;;;;;5097580;28;19955;-78
2021/12/04 02:19:54;;;;;;;;;;;;;;;;;;5098089;28;19916;-80
2021/12/04 02:22:19;;;;;;;;;;;;;;;;;;5097389;28;19916;-78
2021/12/04 02:24:44;;;;;;;;;;;;;;;;;;5081560;28;19941;-78
2021/12/04 02:27:13;;;;;;;;;;;;;;;;;;5077365;28;20290;-78
2021/12/04 02:29:46;;;;;;;;;;;;;;;;;;5077415;28;20453;-79
2021/12/04 02:32:11;;;;;;;;;;;;;;;;;;5079038;28;19916;-79
2021/12/04 02:34:38;;;;;;;;;;;;;;;;;;5088623;28;20000;-79
2021/12/04 02:37:03;;;;;;;;;;;;;;;;;;5071460;28;19921;-79
2021/12/04 02:39:32;;;;;;;;;;;;;;;;;;5088581;28;20290;-79
2021/12/04 02:41:57;;;;;;;;;;;;;;;;;;5087834;28;20282;-79
2021/12/04 02:44:30;;;;;;;;;;;;;;;;;;5087197;28;19927;-79
2021/12/04 02:46:56;;;;;;;;;;;;;;;;;;5087641;28;19916;-79
2021/12/04 02:49:21;;;;;;;;;;;;;;;;;;5070945;28;19924;-79
2021/12/04 02:51:46;;;;;;;;;;;;;;;;;;5089348;28;19916;-79
2021/12/04 02:54:12;;;;;;;;;;;;;;;;;;5098611;28;19922;-78
2021/12/04 02:56:38;;;;;;;;;;;;;;;;;;5110648;28;19921;-79
2021/12/04 02:59:04;;;;;;;;;;;;;;;;;;5111018;28;19959;-78
2021/12/04 03:01:30;;;;;;;;;;;;;;;;;;5104323;28;20301;-78
2021/12/04 03:04:05;;;;;;;;;;;;;;;;;;5100629;28;19978;-78
2021/12/04 03:06:30;;;;;;;;;;;;;;;;;;5099329;28;19963;-79
2021/12/04 03:08:56;;;;;;;;;;;;;;;;;;5100662;28;20377;-78
2021/12/04 03:11:21;;;;;;;;;;;;;;;;;;5100663;28;19969;-78
2021/12/04 03:13:46;;;;;;;;;;;;;;;;;;5098516;28;19969;-81
2021/12/04 03:16:12;;;;;;;;;;;;;;;;;;5098501;28;19927;-78
2021/12/04 03:18:37;;;;;;;;;;;;;;;;;;5099650;28;20369;-79
2021/12/04 03:21:04;;;;;;;;;;;;;;;;;;5100460;28;19926;-78
2021/12/04 03:23:33;;;;;;;;;;;;;;;;;;5096789;28;20335;-78
2021/12/04 03:26:00;;;;;;;;;;;;;;;;;;5080934;28;20386;-78
2021/12/04 03:28:26;;;;;;;;;;;;;;;;;;5080679;28;20413;-78
2021/12/04 03:31:03;;;;;;;;;;;;;;;;;;5079541;28;19917;-78
2021/12/04 03:41:21;;;;;;;;;;;;;;;;;;5081262;28;20003;-78
2021/12/04 03:43:47;;;;;;;;;;;;;;;;;;5080747;28;20005;-79
2021/12/04 03:46:16;;;;;;;;;;;;;;;;;;5080844;28;19920;-78
2021/12/04 03:51:10;;;;;;;;;;;;;;;;;;5080365;28;19928;-78
2021/12/04 03:53:35;;;;;;;;;;;;;;;;;;5084099;28;19985;-78
2021/12/04 03:56:01;;;;;;;;;;;;;;;;;;5100228;28;19966;-79
2021/12/04 03:58:27;;;;;;;;;;;;;;;;;;5099729;28;19923;-79
2021/12/04 04:00:52;;;;;;;;;;;;;;;;;;5100163;28;19970;-79
2021/12/04 04:03:18;;;;;;;;;;;;;;;;;;5099541;28;19916;-81
2021/12/04 04:05:43;;;;;;;;;;;;;;;;;;5100111;28;19916;-80
2021/12/04 04:08:11;;;;;;;;;;;;;;;;;;5101197;28;20262;-80
2021/12/04 04:10:36;;;;;;;;;;;;;;;;;;5101826;28;19930;-80
2021/12/04 04:13:02;;;;;;;;;;;;;;;;;;5101329;28;19920;-79
2021/12/04 04:15:27;;;;;;;;;;;;;;;;;;5101260;28;19966;-78
2021/12/04 04:17:53;;;;;;;;;;;;;;;;;;5100963;28;19927;-79
2021/12/04 04:20:20;;;;;;;;;;;;;;;;;;5100404;28;19916;-81
2021/12/04 04:22:47;;;;;;;;;;;;;;;;;;5100664;28;19923;-78
2021/12/04 04:25:13;;;;;;;;;;;;;;;;;;5100432;28;20041;-78
2021/12/04 04:27:38;;;;;;;;;;;;;;;;;;5098890;28;19916;-78
2021/12/04 04:30:05;;;;;;;;;;;;;;;;;;5100586;28;19923;-79
2021/12/04 04:32:31;;;;;;;;;;;;;;;;;;5098402;28;19916;-78
2021/12/04 04:35:06;;;;;;;;;;;;;;;;;;5099854;28;19961;-78
2021/12/04 04:37:39;;;;;;;;;;;;;;;;;;5098413;28;19916;-79
2021/12/04 04:40:43;;;;;;;;;;;;;;;;;;5098442;28;19961;-78
2021/12/04 04:59:42;;;;;;;;;;;;;;;;;;5081772;28;19923;-79
2021/12/04 05:13:10;;;;;;;;;;;;;;;;;;5018738;28;20306;-79
2021/12/04 05:15:56;;;;;;;;;;;;;;;;;;5068343;28;19916;-79
2021/12/04 05:21:06;;;;;;;;;;;;;;;;;;5079323;28;19920;-80
2021/12/04 05:23:33;;;;;;;;;;;;;;;;;;5083275;28;20381;-78
2021/12/04 05:25:59;;;;;;;;;;;;;;;;;;5100297;28;20301;-78
2021/12/04 05:28:24;;;;;;;;;;;;;;;;;;5099325;28;19920;-78
2021/12/04 05:30:49;;;;;;;;;;;;;;;;;;5099373;28;19916;-79
2021/12/04 05:33:15;;;;;;;;;;;;;;;;;;5099200;28;19916;-78
2021/12/04 05:35:40;;;;;;;;;;;;;;;;;;5098635;28;19918;-80
2021/12/04 05:38:06;;;;;;;;;;;;;;;;;;5101165;28;19916;-78
2021/12/04 05:40:31;;;;;;;;;;;;;;;;;;5098611;28;20015;-79
2021/12/04 05:43:03;;;;;;;;;;;;;;;;;;5099613;28;20382;-80
2021/12/04 05:45:31;;;;;;;;;;;;;;;;;;5098697;28;19920;-78
2021/12/04 05:55:54;;;;;;;;;;;;;;;;;;5076695;28;19923;-78
2021/12/04 05:58:25;;;;;;;;;;;;;;;;;;5076525;28;19916;-77
2021/12/04 06:00:50;;;;;;;;;;;;;;;;;;5076423;28;19930;-79
2021/12/04 06:03:16;;;;;;;;;;;;;;;;;;5076551;28;19916;-78
2021/12/04 06:05:41;;;;;;;;;;;;;;;;;;5058611;28;19922;-77
2021/12/04 06:08:06;;;;;;;;;;;;;;;;;;5075569;28;20301;-78
2021/12/04 06:10:32;;;;;;;;;;;;;;;;;;5076654;28;20394;-78
2021/12/04 06:12:57;;;;;;;;;;;;;;;;;;5074302;28;19939;-77
2021/12/04 06:15:22;;;;;;;;;;;;;;;;;;5074701;28;19927;-77
2021/12/04 06:17:51;;;;;;;;;;;;;;;;;;5076663;28;19916;-77
2021/12/04 06:23:00;;;;;;;;;;;;;;;;;;5076295;28;19917;-77
2021/12/04 06:25:27;;;;;;;;;;;;;;;;;;5095404;28;20281;-77
2021/12/04 06:27:52;;;;;;;;;;;;;;;;;;5095850;28;20297;-78
2021/12/04 06:30:18;;;;;;;;;;;;;;;;;;5095775;28;19916;-79
2021/12/04 06:32:46;;;;;;;;;;;;;;;;;;5095570;28;20400;-77
2021/12/04 06:35:11;;;;;;;;;;;;;;;;;;5094544;28;19916;-78
2021/12/04 06:37:37;;;;;;;;;;;;;;;;;;5094847;28;20011;-77
2021/12/04 06:40:03;;;;;;;;;;;;;;;;;;5095126;28;19919;-77
2021/12/04 06:42:29;;;;;;;;;;;;;;;;;;5095495;28;19923;-77
2021/12/04 06:44:56;;;;;;;;;;;;;;;;;;5095545;28;19920;-77
2021/12/04 06:47:21;;;;;;;;;;;;;;;;;;5095204;28;19973;-77
2021/12/04 06:49:47;;;;;;;;;;;;;;;;;;5095816;28;19974;-77
2021/12/04 06:52:17;;;;;;;;;;;;;;;;;;5098142;28;19923;-78
2021/12/04 06:54:53;;;;;;;;;;;;;;;;;;5102975;28;20015;-78
2021/12/04 06:57:18;;;;;;;;;;;;;;;;;;5101834;28;19916;-78
2021/12/04 06:59:46;;;;;;;;;;;;;;;;;;5101882;28;19922;-78
2021/12/04 07:02:11;;;;;;;;;;;;;;;;;;5104193;28;20334;-78
2021/12/04 07:04:37;;;;;;;;;;;;;;;;;;5101227;28;19916;-78
2021/12/04 07:07:07;;;;;;;;;;;;;;;;;;5103308;28;19916;-79
2021/12/04 07:09:33;;;;;;;;;;;;;;;;;;5107114;28;19928;-78
2021/12/04 07:12:02;;;;;;;;;;;;;;;;;;5107950;28;19916;-78
2021/12/04 07:14:28;;;;;;;;;;;;;;;;;;5106638;28;19916;-78
2021/12/04 07:16:54;;;;;;;;;;;;;;;;;;5107312;28;19942;-78
2021/12/04 07:19:19;;;;;;;;;;;;;;;;;;5105505;28;20400;-78
2021/12/04 07:21:45;;;;;;;;;;;;;;;;;;5095657;28;19920;-79
2021/12/04 07:24:12;;;;;;;;;;;;;;;;;;5085077;28;19982;-78
2021/12/04 07:26:37;;;;;;;;;;;;;;;;;;5075069;28;19963;-77
2021/12/04 07:29:03;;;;;;;;;;;;;;;;;;5074938;28;19960;-78
2021/12/04 07:31:29;;;;;;;;;;;;;;;;;;5076283;28;19920;-78
2021/12/04 07:33:55;;;;;;;;;;;;;;;;;;5077186;28;19982;-79
2021/12/04 07:36:21;;;;;;;;;;;;;;;;;;5074730;28;20382;-78
2021/12/04 07:38:46;;;;;;;;;;;;;;;;;;5076584;28;19923;-81
2021/12/04 07:41:11;;;;;;;;;;;;;;;;;;5077445;28;19916;-81
2021/12/04 07:43:37;;;;;;;;;;;;;;;;;;5079861;28;19961;-79
2021/12/04 07:46:02;;;;;;;;;;;;;;;;;;5081189;28;19925;-80
2021/12/04 07:48:27;;;;;;;;;;;;;;;;;;5090725;28;19920;-80
2021/12/04 07:50:53;;;;;;;;;;;;;;;;;;5090886;28;19924;-81
2021/12/04 07:53:18;;;;;;;;;;;;;;;;;;5081392;28;20006;-81
2021/12/04 07:55:43;;;;;;;;;;;;;;;;;;5080396;28;20389;-81
2021/12/04 07:58:09;;;;;;;;;;;;;;;;;;5082629;28;19924;-82
2021/12/04 08:00:34;;;;;;;;;;;;;;;;;;5080355;28;19977;-81
2021/12/04 08:03:01;;;;;;;;;;;;;;;;;;5097172;28;19923;-79
2021/12/04 08:05:28;;;;;;;;;;;;;;;;;;5079963;28;20362;-81
2021/12/04 08:07:55;;;;;;;;;;;;;;;;;;5080097;28;19925;-81
2021/12/04 08:10:21;;;;;;;;;;;;;;;;;;5078911;28;19916;-81
2021/12/04 08:12:48;;;;;;;;;;;;;;;;;;5081537;28;19916;-82
2021/12/04 08:15:33;;;;;;;;;;;;;;;;;;5090116;28;19984;-81
2021/12/04 08:17:58;;;;;;;;;;;;;;;;;;5091617;28;19917;-81
2021/12/04 08:20:25;;;;;;;;;;;;;;;;;;5092402;28;19938;-79
2021/12/04 08:22:50;;;;;;;;;;;;;;;;;;5092245;28;19944;-81
2021/12/04 08:25:17;;;;;;;;;;;;;;;;;;5108183;28;19923;-81
2021/12/04 08:27:43;;;;;;;;;;;;;;;;;;5113533;28;19923;-83
2021/12/04 08:30:11;;;;;;;;;;;;;;;;;;5109391;28;19984;-84
2021/12/04 08:32:36;;;;;;;;;;;;;;;;;;5091750;28;19937;-82
2021/12/04 08:35:02;;;;;;;;;;;;;;;;;;5092828;28;19983;-81
2021/12/04 08:37:27;;;;;;;;;;;;;;;;;;5110699;28;20361;-78
2021/12/04 08:39:53;;;;;;;;;;;;;;;;;;5105963;28;19920;-81
2021/12/04 08:42:19;;;;;;;;;;;;;;;;;;5108249;28;19961;-84
2021/12/04 08:44:45;;;;;;;;;;;;;;;;;;5106632;28;20343;-77
2021/12/04 08:47:10;;;;;;;;;;;;;;;;;;5107646;28;20385;-80
2021/12/04 08:49:37;;;;;;;;;;;;;;;;;;5105964;28;19924;-82
2021/12/04 08:52:04;;;;;;;;;;;;;;;;;;5105481;28;19920;-78
2021/12/04 08:54:31;;;;;;;;;;;;;;;;;;5102989;28;19916;-80
2021/12/04 08:56:56;;;;;;;;;;;;;;;;;;5106430;28;19950;-78
2021/12/04 08:59:41;;;;;;;;;;;;;;;;;;5100346;28;19924;-81
2021/12/04 09:02:07;;;;;;;;;;;;;;;;;;5096920;28;19916;-84
2021/12/04 09:04:35;;;;;;;;;;;;;;;;;;5104919;28;19923;-80
2021/12/04 09:07:00;;;;;;;;;;;;;;;;;;5105284;28;19980;-82
2021/12/04 09:09:28;;;;;;;;;;;;;;;;;;5105333;28;19927;-80
2021/12/04 09:11:59;;;;;;;;;;;;;;;;;;5103216;28;19987;-79
2021/12/04 09:14:25;;;;;;;;;;;;;;;;;;5102979;28;19916;-81
2021/12/04 09:16:52;;;;;;;;;;;;;;;;;;5102137;28;19916;-84
2021/12/04 09:19:18;;;;;;;;;;;;;;;;;;5101755;28;19966;-81
2021/12/04 09:21:43;;;;;;;;;;;;;;;;;;5106091;28;19987;-83
2021/12/04 09:24:17;;;;;;;;;;;;;;;;;;5101527;28;20005;-81
2021/12/04 09:26:55;;;;;;;;;;;;;;;;;;5102081;28;19923;-81
2021/12/04 09:29:34;;;;;;;;;;;;;;;;;;5100185;28;19963;-81
2021/12/04 09:32:22;;;;;;;;;;;;;;;;;;5099420;28;19916;-81
2021/12/04 10:16:33;;;;;;;;;;;;;;;;;;5108474;28;19916;-81
2021/12/04 10:19:16;;;;;;;;;;;;;;;;;;5104300;28;19916;-80
2021/12/04 10:35:06;;;;;;;;;;;;;;;;;;5097489;28;19923;-80
2021/12/04 10:37:32;;;;;;;;;;;;;;;;;;5098729;28;19916;-79
2021/12/04 10:40:03;;;;;;;;;;;;;;;;;;5100170;28;19923;-79
2021/12/04 10:42:39;;;;;;;;;;;;;;;;;;5100203;28;19969;-79
2021/12/04 10:45:05;;;;;;;;;;;;;;;;;;5099415;28;19920;-80
2021/12/04 10:47:30;;;;;;;;;;;;;;;;;;5096533;28;20296;-80
2021/12/04 10:52:45;;;;;;;;;;;;;;;;;;5100771;28;19961;-80
2021/12/04 11:03:07;;;;;;;;;;;;;;;;;;5119395;28;19915;-78
2021/12/04 11:19:44;;;;;;;;;;;;;;;;;;5122171;28;19915;-78
2021/12/04 11:43:20;;;;;;;;;;;;;;;;;;5097784;28;19915;-78
2021/12/04 11:46:13;;;;;;;;;;;;;;;;;;5117759;28;20398;-76
2021/12/04 11:48:39;;;;;;;;;;;;;;;;;;5116536;28;19945;-77
2021/12/04 11:51:10;;;;;;;;;;;;;;;;;;5117264;28;20369;-75
2021/12/04 11:53:36;;;;;;;;;;;;;;;;;;5113380;28;19916;-74
2021/12/04 11:56:02;;;;;;;;;;;;;;;;;;5096867;28;19939;-77
2021/12/04 11:58:28;;;;;;;;;;;;;;;;;;5098499;28;20046;-77
2021/12/04 12:00:56;;;;;;;;;;;;;;;;;;5098354;28;19984;-77
2021/12/04 12:03:26;;;;;;;;;;;;;;;;;;5099271;28;20366;-84
2021/12/04 12:05:53;;;;;;;;;;;;;;;;;;5081973;28;20401;-80
2021/12/04 12:08:23;;;;;;;;;;;;;;;;;;5099875;28;19920;-81
2021/12/04 12:10:51;;;;;;;;;;;;;;;;;;5079169;28;19950;-78
2021/12/04 12:13:24;;;;;;;;;;;;;;;;;;5097029;28;19916;-77
2021/12/04 12:15:56;;;;;;;;;;;;;;;;;;5096799;28;20391;-77
2021/12/04 12:18:22;;;;;;;;;;;;;;;;;;5099573;28;19916;-80
2021/12/04 12:20:55;;;;;;;;;;;;;;;;;;5101697;28;19969;-82
2021/12/04 12:23:24;;;;;;;;;;;;;;;;;;5098674;28;19983;-79
2021/12/04 12:34:07;;;;;;;;;;;;;;;;;;5101261;28;19942;-78
2021/12/04 12:36:33;;;;;;;;;;;;;;;;;;5096491;28;19920;-75
2021/12/04 12:39:13;;;;;;;;;;;;;;;;;;5094551;28;20293;-75
2021/12/04 12:41:40;;;;;;;;;;;;;;;;;;5094993;28;19923;-76
2021/12/04 12:44:05;;;;;;;;;;;;;;;;;;5095190;28;20373;-77
2021/12/04 12:46:34;;;;;;;;;;;;;;;;;;5083250;28;20382;-78
2021/12/04 12:49:01;;;;;;;;;;;;;;;;;;5085883;28;20409;-78
2021/12/04 12:51:28;;;;;;;;;;;;;;;;;;5082223;28;19916;-81
2021/12/04 12:53:53;;;;;;;;;;;;;;;;;;5083700;28;19956;-78
2021/12/04 12:56:26;;;;;;;;;;;;;;;;;;5087230;28;20405;-78
2021/12/04 12:59:03;;;;;;;;;;;;;;;;;;5082068;28;19923;-76
2021/12/04 13:12:46;;;;;;;;;;;;;;;;;;5081289;28;19950;-83
2021/12/04 13:15:12;;;;;;;;;;;;;;;;;;5067544;28;19942;-78
2021/12/04 13:17:40;;;;;;;;;;;;;;;;;;5096016;28;19916;-80
2021/12/04 13:20:05;;;;;;;;;;;;;;;;;;5090252;28;20015;-83
2021/12/04 13:22:31;;;;;;;;;;;;;;;;;;5100338;28;19963;-79
2021/12/04 13:24:59;;;;;;;;;;;;;;;;;;5085324;28;19923;-81
2021/12/04 13:30:00;;;;;;;;;;;;;;;;;;5078154;28;19942;-84
2021/12/04 13:32:36;;;;;;;;;;;;;;;;;;5080595;28;19970;-81
2021/12/04 13:35:06;;;;;;;;;;;;;;;;;;5080858;28;19916;-82
2021/12/04 13:37:31;;;;;;;;;;;;;;;;;;5080408;28;19956;-82
2021/12/04 13:39:58;;;;;;;;;;;;;;;;;;5078538;28;19924;-83
2021/12/04 13:42:24;;;;;;;;;;;;;;;;;;5079207;28;20511;-81
2021/12/04 13:44:50;;;;;;;;;;;;;;;;;;5079529;28;19964;-82
2021/12/04 13:47:15;;;;;;;;;;;;;;;;;;5084499;28;19917;-83
2021/12/04 13:50:06;;;;;;;;;;;;;;;;;;5102467;28;19920;-84
2021/12/04 13:52:33;;;;;;;;;;;;;;;;;;5099404;28;19916;-84
2021/12/04 13:55:11;;;;;;;;;;;;;;;;;;5099257;28;19917;-84
2021/12/04 13:57:40;;;;;;;;;;;;;;;;;;5083952;28;20002;-84
2021/12/04 14:00:06;;;;;;;;;;;;;;;;;;5081680;28;19916;-83
2021/12/04 14:02:32;;;;;;;;;;;;;;;;;;5081255;28;19939;-84
2021/12/04 14:05:05;;;;;;;;;;;;;;;;;;5083131;28;19916;-83
2021/12/04 14:07:31;;;;;;;;;;;;;;;;;;5064292;28;19916;-83
2021/12/04 14:09:56;;;;;;;;;;;;;;;;;;5082283;28;20425;-83
2021/12/04 14:12:22;;;;;;;;;;;;;;;;;;5082047;28;19916;-83
2021/12/04 14:14:48;;;;;;;;;;;;;;;;;;5081682;28;19917;-83
2021/12/04 14:17:14;;;;;;;;;;;;;;;;;;5080863;28;19920;-83
2021/12/04 14:19:41;;;;;;;;;;;;;;;;;;5082095;28;19916;-83
2021/12/04 14:22:09;;;;;;;;;;;;;;;;;;5081426;28;19916;-83
2021/12/04 14:24:54;;;;;;;;;;;;;;;;;;5093802;28;19916;-83
2021/12/04 14:27:21;;;;;;;;;;;;;;;;;;5101859;28;19939;-83
2021/12/04 14:29:48;;;;;;;;;;;;;;;;;;5102163;28;19955;-83
2021/12/04 14:32:16;;;;;;;;;;;;;;;;;;5082362;28;19927;-83
2021/12/04 14:34:41;;;;;;;;;;;;;;;;;;5098761;28;20270;-83
2021/12/04 14:37:11;;;;;;;;;;;;;;;;;;5098911;28;19938;-81
2021/12/04 14:39:38;;;;;;;;;;;;;;;;;;5078751;28;19923;-78
2021/12/04 14:42:11;;;;;;;;;;;;;;;;;;5102884;28;19927;-83
2021/12/04 14:44:36;;;;;;;;;;;;;;;;;;5099757;28;20293;-83
2021/12/04 14:47:04;;;;;;;;;;;;;;;;;;5100477;28;19916;-84
2021/12/04 14:49:29;;;;;;;;;;;;;;;;;;5101363;28;19946;-83
2021/12/04 14:51:55;;;;;;;;;;;;;;;;;;5105553;28;19916;-83
2021/12/04 14:54:26;;;;;;;;;;;;;;;;;;5097421;28;19917;-84
2021/12/04 14:56:51;;;;;;;;;;;;;;;;;;5087782;28;19916;-84
2021/12/04 14:59:16;;;;;;;;;;;;;;;;;;5088280;28;19918;-83
2021/12/04 15:01:42;;;;;;;;;;;;;;;;;;5087941;28;19920;-84
2021/12/04 15:04:07;;;;;;;;;;;;;;;;;;5087718;28;19916;-83
2021/12/04 15:06:33;;;;;;;;;;;;;;;;;;5087103;28;19965;-83
2021/12/04 15:09:01;;;;;;;;;;;;;;;;;;5098637;28;19920;-84
2021/12/04 15:11:32;;;;;;;;;;;;;;;;;;5108218;28;19916;-84
2021/12/04 15:14:08;;;;;;;;;;;;;;;;;;5108095;28;19942;-83
2021/12/04 15:16:38;;;;;;;;;;;;;;;;;;5108754;28;19920;-84
2021/12/04 15:19:11;;;;;;;;;;;;;;;;;;5108278;28;19916;-83
2021/12/04 15:21:41;;;;;;;;;;;;;;;;;;5106397;28;19916;-84
2021/12/04 15:24:08;;;;;;;;;;;;;;;;;;5099156;28;19916;-83
2021/12/04 15:26:38;;;;;;;;;;;;;;;;;;5087148;28;19982;-83
2021/12/04 15:29:03;;;;;;;;;;;;;;;;;;5087927;28;19924;-83
2021/12/04 15:31:29;;;;;;;;;;;;;;;;;;5087908;28;20425;-84
2021/12/04 15:33:55;;;;;;;;;;;;;;;;;;5084858;28;20376;-84
2021/12/04 15:36:35;;;;;;;;;;;;;;;;;;5084587;28;20346;-84
2021/12/04 15:39:06;;;;;;;;;;;;;;;;;;5083325;28;19943;-84
2021/12/04 15:41:56;;;;;;;;;;;;;;;;;;5089817;28;19952;-84
2021/12/04 15:49:31;;;;;;;;;;;;;;;;;;5084938;28;19920;-84
2021/12/04 15:54:53;;;;;;;;;;;;;;;;;;5091253;28;19964;-85
2021/12/04 15:57:21;;;;;;;;;;;;;;;;;;5100147;28;20061;-85
2021/12/04 15:59:47;;;;;;;;;;;;;;;;;;5102270;28;19923;-84
2021/12/04 16:02:29;;;;;;;;;;;;;;;;;;5099899;28;19916;-84
2021/12/04 16:05:03;;;;;;;;;;;;;;;;;;5097102;28;19916;-85
2021/12/04 16:07:29;;;;;;;;;;;;;;;;;;5084483;28;20449;-84
2021/12/04 16:09:59;;;;;;;;;;;;;;;;;;5088922;28;19948;-84
2021/12/04 16:12:24;;;;;;;;;;;;;;;;;;5088315;28;19916;-84
2021/12/04 16:14:56;;;;;;;;;;;;;;;;;;5095005;28;19923;-84
2021/12/04 16:17:22;;;;;;;;;;;;;;;;;;5091078;28;19924;-84
2021/12/04 16:19:52;;;;;;;;;;;;;;;;;;5093063;28;20441;-82
2021/12/04 16:22:18;;;;;;;;;;;;;;;;;;5087682;28;19922;-83
2021/12/04 16:24:47;;;;;;;;;;;;;;;;;;5092777;28;20003;-83
2021/12/04 16:27:17;;;;;;;;;;;;;;;;;;5074790;28;19912;-81
2021/12/04 16:29:53;;;;;;;;;;;;;;;;;;5093023;28;19924;-81
2021/12/04 16:35:11;;;;;;;;;;;;;;;;;;5087904;28;20378;-81
2021/12/04 16:37:47;;;;;;;;;;;;;;;;;;5090926;28;20274;-76
2021/12/04 16:40:23;;;;;;;;;;;;;;;;;;5086019;28;20392;-77
2021/12/04 16:43:16;;;;;;;;;;;;;;;;;;5087030;28;19969;-77
2021/12/04 16:45:45;;;;;;;;;;;;;;;;;;5080546;28;19946;-77
2021/12/04 16:48:12;;;;;;;;;;;;;;;;;;5085371;28;19923;-79
2021/12/04 16:58:46;;;;;;;;;;;;;;;;;;5058467;28;19969;-86
2021/12/04 17:01:13;;;;;;;;;;;;;;;;;;5078744;28;19920;-78
2021/12/04 17:03:38;;;;;;;;;;;;;;;;;;5077123;28;19925;-83
2021/12/04 17:06:03;;;;;;;;;;;;;;;;;;5078157;28;19920;-82
2021/12/04 17:08:29;;;;;;;;;;;;;;;;;;5078070;28;19924;-82
2021/12/04 17:10:54;;;;;;;;;;;;;;;;;;5078551;28;19916;-81
2021/12/04 17:13:20;;;;;;;;;;;;;;;;;;5078271;28;20366;-82
2021/12/04 17:15:49;;;;;;;;;;;;;;;;;;5077073;28;19970;-80
2021/12/04 17:18:20;;;;;;;;;;;;;;;;;;5077232;28;19955;-80
2021/12/04 17:20:46;;;;;;;;;;;;;;;;;;5077139;28;19971;-82
2021/12/04 17:23:13;;;;;;;;;;;;;;;;;;5078247;28;19923;-80
2021/12/04 17:25:40;;;;;;;;;;;;;;;;;;5078262;28;19916;-82
2021/12/04 17:28:08;;;;;;;;;;;;;;;;;;5095182;28;19923;-78
2021/12/04 17:30:34;;;;;;;;;;;;;;;;;;5097673;28;19919;-79
2021/12/04 17:32:59;;;;;;;;;;;;;;;;;;5098791;28;20006;-77
2021/12/04 17:35:25;;;;;;;;;;;;;;;;;;5096187;28;20632;-79
2021/12/04 17:37:51;;;;;;;;;;;;;;;;;;5098996;28;20385;-83
2021/12/04 17:40:18;;;;;;;;;;;;;;;;;;5099792;28;19920;-82
2021/12/04 17:42:44;;;;;;;;;;;;;;;;;;5099604;28;20014;-82
2021/12/04 17:45:12;;;;;;;;;;;;;;;;;;5103050;28;20397;-81
2021/12/04 17:47:42;;;;;;;;;;;;;;;;;;5099389;28;19916;-79
2021/12/04 17:50:10;;;;;;;;;;;;;;;;;;5098799;28;19920;-78
2021/12/04 17:52:36;;;;;;;;;;;;;;;;;;5099494;28;19916;-79
2021/12/04 17:55:02;;;;;;;;;;;;;;;;;;5084248;28;19923;-80
2021/12/04 17:57:27;;;;;;;;;;;;;;;;;;5080040;28;19955;-83
2021/12/04 17:59:52;;;;;;;;;;;;;;;;;;5082749;28;19917;-82
2021/12/04 18:02:18;;;;;;;;;;;;;;;;;;5084767;28;19920;-80
2021/12/04 18:04:48;;;;;;;;;;;;;;;;;;5085447;28;19943;-79
2021/12/04 18:07:16;;;;;;;;;;;;;;;;;;5086551;28;19920;-78
2021/12/04 18:09:42;;;;;;;;;;;;;;;;;;5084204;28;19943;-79
2021/12/04 18:12:11;;;;;;;;;;;;;;;;;;5081536;28;19939;-79
2021/12/04 18:14:37;;;;;;;;;;;;;;;;;;5082080;28;19970;-82
2021/12/04 18:17:05;;;;;;;;;;;;;;;;;;5086580;28;19916;-80
2021/12/04 18:19:40;;;;;;;;;;;;;;;;;;5088585;28;19916;-80
2021/12/04 18:22:06;;;;;;;;;;;;;;;;;;5088829;28;19928;-79
2021/12/04 18:24:32;;;;;;;;;;;;;;;;;;5100145;28;19916;-79
2021/12/04 18:26:58;;;;;;;;;;;;;;;;;;5109892;28;19923;-79
2021/12/04 18:29:24;;;;;;;;;;;;;;;;;;5108097;28;19964;-82
2021/12/04 18:31:50;;;;;;;;;;;;;;;;;;5102222;28;19965;-82
2021/12/04 18:34:16;;;;;;;;;;;;;;;;;;5098629;28;19916;-81
2021/12/04 18:36:42;;;;;;;;;;;;;;;;;;5103065;28;20269;-81
2021/12/04 18:39:08;;;;;;;;;;;;;;;;;;5081762;28;20002;-82
2021/12/04 18:41:34;;;;;;;;;;;;;;;;;;5101264;28;19920;-83
2021/12/04 18:44:01;;;;;;;;;;;;;;;;;;5104202;28;19916;-80
2021/12/04 18:46:31;;;;;;;;;;;;;;;;;;5085673;28;19912;-81
2021/12/04 18:48:57;;;;;;;;;;;;;;;;;;5084498;28;20002;-83
2021/12/04 18:51:24;;;;;;;;;;;;;;;;;;5100567;28;19941;-80
2021/12/04 18:53:51;;;;;;;;;;;;;;;;;;5109653;28;20304;-79
2021/12/04 18:56:16;;;;;;;;;;;;;;;;;;5125242;28;19916;-81
2021/12/04 18:58:43;;;;;;;;;;;;;;;;;;5124038;28;19923;-80
2021/12/04 19:01:11;;;;;;;;;;;;;;;;;;5121656;28;20427;-80
2021/12/04 19:03:37;;;;;;;;;;;;;;;;;;5125876;28;19916;-81
2021/12/04 19:06:03;;;;;;;;;;;;;;;;;;5124887;28;19916;-82
2021/12/04 19:08:29;;;;;;;;;;;;;;;;;;5125746;28;19977;-82
2021/12/04 19:10:58;;;;;;;;;;;;;;;;;;5126687;28;19915;-78
2021/12/04 19:13:24;;;;;;;;;;;;;;;;;;5113947;28;20007;-77
2021/12/04 19:15:49;;;;;;;;;;;;;;;;;;5114274;28;19959;-77
2021/12/04 19:18:15;;;;;;;;;;;;;;;;;;5096906;28;19919;-77
2021/12/04 19:20:42;;;;;;;;;;;;;;;;;;5093382;28;19923;-77
2021/12/04 19:23:08;;;;;;;;;;;;;;;;;;5092046;28;19951;-78
2021/12/04 19:25:34;;;;;;;;;;;;;;;;;;5093299;28;19970;-77
2021/12/04 19:28:00;;;;;;;;;;;;;;;;;;5092576;28;19924;-77
2021/12/04 19:30:31;;;;;;;;;;;;;;;;;;5093434;28;19920;-77
2021/12/04 19:33:12;;;;;;;;;;;;;;;;;;5075101;28;20037;-77
2021/12/04 19:36:15;;;;;;;;;;;;;;;;;;5093099;28;19916;-77
2021/12/04 19:50:24;;;;;;;;;;;;;;;;;;5096706;28;19920;-77
2021/12/04 19:52:33;;;;;;;;;;;;;;;;;;5095017;28;20381;-77
2021/12/04 19:55:09;;;;;;;;;;;;;;;;;;5088245;28;20472;-77
2021/12/04 19:57:48;;;;;;;;;;;;;;;;;;5085711;28;19923;-77
2021/12/04 20:00:18;;;;;;;;;;;;;;;;;;5087332;28;19934;-77
2021/12/04 20:05:52;;;;;;;;;;;;;;;;;;5049579;28;19917;-78
2021/12/04 20:08:50;;;;;;;;;;;;;;;;;;5084683;28;19968;-77
2021/12/04 20:13:59;;;;;;;;;;;;;;;;;;5085991;28;19916;-77
2021/12/04 20:16:28;;;;;;;;;;;;;;;;;;5084655;28;19961;-77
2021/12/04 20:19:00;;;;;;;;;;;;;;;;;;5086257;28;19955;-77
2021/12/04 20:21:27;;;;;;;;;;;;;;;;;;5087461;28;19917;-77
2021/12/04 20:23:55;;;;;;;;;;;;;;;;;;5086366;28;19916;-77
2021/12/04 20:26:29;;;;;;;;;;;;;;;;;;5083810;28;19961;-77
2021/12/04 20:29:06;;;;;;;;;;;;;;;;;;5085523;28;19928;-77
2021/12/04 20:34:17;;;;;;;;;;;;;;;;;;5081319;28;20007;-77
2021/12/04 21:04:10;;;;;;;;;;;;;;;;;;5083998;28;19927;-77
2021/12/04 21:50:13;;;;;;;;;;;;;;;;;;5093692;28;19928;-77